Aviation Digital Data Service (ADDS)

Output produced by METARs form (1252 UTC 21 February 2018)
found at http://www.aviationweather.gov/adds/metars/
 
TAF MMAA 201027Z 2012/2118 04005KT P6SM SKC TX30/2021Z TN23/2012Z 
     FM201800 24012KT P6SM SCT015 SCT080 BKN250 
     FM210600 34005KT P6SM SCT250 
     FM211700 23010KT P6SM SCT015 BKN080
       
TAF AMD MMCV 211249Z 2113/2206 16005KT 5SM HZ OVC020 
     TEMPO 2113/2115 1SM BR OVC010 
     FM211800 16015KT P6SM SCT020 
     FM220300 14008KT 6SM HZ BKN010
       
TAF AMD MMCZ 201453Z 2015/2118 12020KT P6SM SCT015 
     TEMPO 2017/2021 BKN015 
     FM210100 12012KT P6SM SCT015
       
TAF MMGL 201022Z 2012/2118 00000KT P6SM SCT080 TX25/2021Z TN10/2012Z 
     FM201800 25012KT P6SM BKN030 BKN100 BKN250 
     FM210600 29005KT P6SM SCT030 SCT080 BKN250 
     FM211700 22014KT P6SM BKN030 BKN250
       
TAF AMD MMMD 201454Z 2015/2118 12020G30KT P6SM SCT020 TX33/2020Z TN22/2112Z 
     TEMPO 2018/2022 BKN020 
     FM210100 12015KT P6SM SKC 
     FM211300 12015KT P6SM BKN020
       
TAF MMMM 201022Z 2012/2118 00000KT 6SM HZ SCT090 
     FM201800 24014KT P6SM SCT030 BKN100 
     FM210600 00000KT P6SM SCT100 
     FM211700 22014KT P6SM SCT030 BKN080 BKN250
       
TAF MMMX 201027Z 2012/2118 12005KT P6SM SCT020 SCT080 TX23/2021Z TN12/2013Z 
     FM201800 16012KT 6SM HZ SCT020 BKN080 BKN250 
     TEMPO 2021/2101 BKN020 
     FM210600 12005KT P6SM SCT020 SCT250 
     FM211700 14012KT P6SM SCT025 BKN080
       
TAF MMMY 201034Z 2012/2118 09005KT P6SM BKN080 TX29/2022Z TN18/2013Z 
     TEMPO 2012/2016 4SM HZ BKN010 
     FM201800 22010KT P6SM SCT030 BKN020 BKN080 BKN250 
     FM210600 12006KT P6SM BKN020 BKN080 
     PROB40 2108/2112 5SM -RA BKN015 
     FM211700 20012KT P6SM SCT020 BKN100 BKN250
       
TAF MMMZ 201012Z 2012/2118 34006KT P6SM BKN250 TX27/2020Z TN18/2012Z 
     FM201800 23010KT P6SM SCT020 BKN080 BKN250 
     FM210600 34005KT P6SM BKN250 
     FM211700 34005KT P6SM BKN250
       
TAF MMPR 201022Z 2012/2118 04005KT P6SM SCT100 TX28/2019Z TN21/2012Z 
     FM201800 23010KT P6SM SCT020 BKN100 BKN250 
     FM210600 34005KT P6SM SCT250 
     FM211700 23010KT P6SM SCT020 BKN100 BKN250
       
TAF AMD MMRX 211237Z 2113/2206 13005KT 6SM HZ BKN025 
     TEMPO 2113/2115 2SM BR HZ BKN010 OVC010 
     FM211800 14010G20KT 6SM HZ BKN015 BKN080 
     TEMPO 2200/2204 4SM TSRA BKN010CB
       
TAF AMD MMSP 201400Z 2014/2118 00000KT P6SM SCT030 BKN250 TX24/2021Z TN10/2112Z 
     FM202000 23015KT P6SM BKN030 
     PROB40 2022/2102 5SM VC RA BKN020CB 
     FM210300 00000KT P6SM SCT020 BKN250
       
TAF MMTJ 201012Z 2012/2118 00000KT 6SM HZ SCT020 TX13/2019Z TN06/2012Z 
     TEMPO 2012/2016 BKN015 
     FM201800 30016KT P6SM SCT030 BKN250 
     FM210600 30008KT P6SM BKN020 
     TEMPO 2111/2115 BKN015 F211700 32012KT P6SM SCT020 SCT250
       
TAF AMD MMTO 201315Z 2013/2118 00000KT 5SM HZ BKN015 TX21/2020Z TN06/2112Z 
     FM201600 00000KT 6SM HZ SCT015 BKN250 
     FM202000 23012KT 5SM VC RA BKN015CB 
     TEMPO 2021/2101 3SM TSRA 
     FM210200 00000KT 5SM HZ SCT015 BKN070
       
TAF MMTP 201032Z 2012/2118 00000KT P6SM SCT140 
     FM201800 23010KT P6SM SCT100 SCT250 
     FM210600 00000KT P6SM SCT250 
     FM211700 23010KT P6SM SCT020 BKN100
       
TAF MMUN 201032Z 2012/2118 12010KT P6SM SCT015 TX28/2019Z TN25/2012Z 
     FM201800 12014KT P6SM BKN015 BKN250 
     FM210600 12005KT P6SM SCT015 
     FM211700 13015KT P6SM BKN015 BKN250
       
TAF MMZC 201022Z 2012/2118 21008KT 6SM BKN250 TX23/2021Z TN11/2012Z 
     FM201800 22018KT P6SM SCT030 BKN080 BKN250 
     FM210600 26008KT P6SM SCT030 SCT250 
     FM211700 20016KT P6SM SCT030 BKN100 BKN250
       
TAF MMAA 201027Z 2012/2118 04005KT P6SM SKC TX30/2021Z TN23/2012Z 
     FM201800 24012KT P6SM SCT015 SCT080 BKN250 
     FM210600 34005KT P6SM SCT250 
     FM211700 23010KT P6SM SCT015 BKN080
       
TAF AMD MMCV 211249Z 2113/2206 16005KT 5SM HZ OVC020 
     TEMPO 2113/2115 1SM BR OVC010 
     FM211800 16015KT P6SM SCT020 
     FM220300 14008KT 6SM HZ BKN010
       
TAF AMD MMCZ 201453Z 2015/2118 12020KT P6SM SCT015 
     TEMPO 2017/2021 BKN015 
     FM210100 12012KT P6SM SCT015
       
TAF MMGL 201022Z 2012/2118 00000KT P6SM SCT080 TX25/2021Z TN10/2012Z 
     FM201800 25012KT P6SM BKN030 BKN100 BKN250 
     FM210600 29005KT P6SM SCT030 SCT080 BKN250 
     FM211700 22014KT P6SM BKN030 BKN250
       
TAF AMD MMMD 201454Z 2015/2118 12020G30KT P6SM SCT020 TX33/2020Z TN22/2112Z 
     TEMPO 2018/2022 BKN020 
     FM210100 12015KT P6SM SKC 
     FM211300 12015KT P6SM BKN020
       
TAF MMMM 201022Z 2012/2118 00000KT 6SM HZ SCT090 
     FM201800 24014KT P6SM SCT030 BKN100 
     FM210600 00000KT P6SM SCT100 
     FM211700 22014KT P6SM SCT030 BKN080 BKN250
       
TAF MMMX 201027Z 2012/2118 12005KT P6SM SCT020 SCT080 TX23/2021Z TN12/2013Z 
     FM201800 16012KT 6SM HZ SCT020 BKN080 BKN250 
     TEMPO 2021/2101 BKN020 
     FM210600 12005KT P6SM SCT020 SCT250 
     FM211700 14012KT P6SM SCT025 BKN080
       
TAF MMMY 201034Z 2012/2118 09005KT P6SM BKN080 TX29/2022Z TN18/2013Z 
     TEMPO 2012/2016 4SM HZ BKN010 
     FM201800 22010KT P6SM SCT030 BKN020 BKN080 BKN250 
     FM210600 12006KT P6SM BKN020 BKN080 
     PROB40 2108/2112 5SM -RA BKN015 
     FM211700 20012KT P6SM SCT020 BKN100 BKN250
       
TAF MMMZ 201012Z 2012/2118 34006KT P6SM BKN250 TX27/2020Z TN18/2012Z 
     FM201800 23010KT P6SM SCT020 BKN080 BKN250 
     FM210600 34005KT P6SM BKN250 
     FM211700 34005KT P6SM BKN250
       
TAF MMPR 201022Z 2012/2118 04005KT P6SM SCT100 TX28/2019Z TN21/2012Z 
     FM201800 23010KT P6SM SCT020 BKN100 BKN250 
     FM210600 34005KT P6SM SCT250 
     FM211700 23010KT P6SM SCT020 BKN100 BKN250
       
TAF AMD MMRX 211237Z 2113/2206 13005KT 6SM HZ BKN025 
     TEMPO 2113/2115 2SM BR HZ BKN010 OVC010 
     FM211800 14010G20KT 6SM HZ BKN015 BKN080 
     TEMPO 2200/2204 4SM TSRA BKN010CB
       
TAF AMD MMSP 201400Z 2014/2118 00000KT P6SM SCT030 BKN250 TX24/2021Z TN10/2112Z 
     FM202000 23015KT P6SM BKN030 
     PROB40 2022/2102 5SM VC RA BKN020CB 
     FM210300 00000KT P6SM SCT020 BKN250
       
TAF MMTJ 201012Z 2012/2118 00000KT 6SM HZ SCT020 TX13/2019Z TN06/2012Z 
     TEMPO 2012/2016 BKN015 
     FM201800 30016KT P6SM SCT030 BKN250 
     FM210600 30008KT P6SM BKN020 
     TEMPO 2111/2115 BKN015 F211700 32012KT P6SM SCT020 SCT250
       
TAF AMD MMTO 201315Z 2013/2118 00000KT 5SM HZ BKN015 TX21/2020Z TN06/2112Z 
     FM201600 00000KT 6SM HZ SCT015 BKN250 
     FM202000 23012KT 5SM VC RA BKN015CB 
     TEMPO 2021/2101 3SM TSRA 
     FM210200 00000KT 5SM HZ SCT015 BKN070
       
TAF MMTP 201032Z 2012/2118 00000KT P6SM SCT140 
     FM201800 23010KT P6SM SCT100 SCT250 
     FM210600 00000KT P6SM SCT250 
     FM211700 23010KT P6SM SCT020 BKN100
       
TAF MMUN 201032Z 2012/2118 12010KT P6SM SCT015 TX28/2019Z TN25/2012Z 
     FM201800 12014KT P6SM BKN015 BKN250 
     FM210600 12005KT P6SM SCT015 
     FM211700 13015KT P6SM BKN015 BKN250
       
TAF MMZC 201022Z 2012/2118 21008KT 6SM BKN250 TX23/2021Z TN11/2012Z 
     FM201800 22018KT P6SM SCT030 BKN080 BKN250 
     FM210600 26008KT P6SM SCT030 SCT250 
     FM211700 20016KT P6SM SCT030 BKN100 BKN250
       
TAF MMUN 201032Z 2012/2118 12010KT P6SM SCT015 TX28/2019Z TN25/2012Z 
     FM201800 12014KT P6SM BKN015 BKN250 
     FM210600 12005KT P6SM SCT015 
     FM211700 13015KT P6SM BKN015 BKN250
       
TAF AMD MMCV 211249Z 2113/2206 16005KT 5SM HZ OVC020 
     TEMPO 2113/2115 1SM BR OVC010 
     FM211800 16015KT P6SM SCT020 
     FM220300 14008KT 6SM HZ BKN010
       
TAF AMD MMCZ 201453Z 2015/2118 12020KT P6SM SCT015 
     TEMPO 2017/2021 BKN015 
     FM210100 12012KT P6SM SCT015
       
TAF MMGL 201022Z 2012/2118 00000KT P6SM SCT080 TX25/2021Z TN10/2012Z 
     FM201800 25012KT P6SM BKN030 BKN100 BKN250 
     FM210600 29005KT P6SM SCT030 SCT080 BKN250 
     FM211700 22014KT P6SM BKN030 BKN250
       
TAF MMTJ 201012Z 2012/2118 00000KT 6SM HZ SCT020 TX13/2019Z TN06/2012Z 
     TEMPO 2012/2016 BKN015 
     FM201800 30016KT P6SM SCT030 BKN250 
     FM210600 30008KT P6SM BKN020 
     TEMPO 2111/2115 BKN015 F211700 32012KT P6SM SCT020 SCT250
       
TAF MMMM 201022Z 2012/2118 00000KT 6SM HZ SCT090 
     FM201800 24014KT P6SM SCT030 BKN100 
     FM210600 00000KT P6SM SCT100 
     FM211700 22014KT P6SM SCT030 BKN080 BKN250
       
TAF MMAA 201027Z 2012/2118 04005KT P6SM SKC TX30/2021Z TN23/2012Z 
     FM201800 24012KT P6SM SCT015 SCT080 BKN250 
     FM210600 34005KT P6SM SCT250 
     FM211700 23010KT P6SM SCT015 BKN080
       
TAF MMZC 201022Z 2012/2118 21008KT 6SM BKN250 TX23/2021Z TN11/2012Z 
     FM201800 22018KT P6SM SCT030 BKN080 BKN250 
     FM210600 26008KT P6SM SCT030 SCT250 
     FM211700 20016KT P6SM SCT030 BKN100 BKN250
       
TAF AMD MMRX 211237Z 2113/2206 13005KT 6SM HZ BKN025 
     TEMPO 2113/2115 2SM BR HZ BKN010 OVC010 
     FM211800 14010G20KT 6SM HZ BKN015 BKN080 
     TEMPO 2200/2204 4SM TSRA BKN010CB
       
TAF MMMY 201034Z 2012/2118 09005KT P6SM BKN080 TX29/2022Z TN18/2013Z 
     TEMPO 2012/2016 4SM HZ BKN010 
     FM201800 22010KT P6SM SCT030 BKN020 BKN080 BKN250 
     FM210600 12006KT P6SM BKN020 BKN080 
     PROB40 2108/2112 5SM -RA BKN015 
     FM211700 20012KT P6SM SCT020 BKN100 BKN250
       
TAF MMMZ 201012Z 2012/2118 34006KT P6SM BKN250 TX27/2020Z TN18/2012Z 
     FM201800 23010KT P6SM SCT020 BKN080 BKN250 
     FM210600 34005KT P6SM BKN250 
     FM211700 34005KT P6SM BKN250
       
TAF AMD MMTO 201315Z 2013/2118 00000KT 5SM HZ BKN015 TX21/2020Z TN06/2112Z 
     FM201600 00000KT 6SM HZ SCT015 BKN250 
     FM202000 23012KT 5SM VC RA BKN015CB 
     TEMPO 2021/2101 3SM TSRA 
     FM210200 00000KT 5SM HZ SCT015 BKN070
       
TAF MMMX 201027Z 2012/2118 12005KT P6SM SCT020 SCT080 TX23/2021Z TN12/2013Z 
     FM201800 16012KT 6SM HZ SCT020 BKN080 BKN250 
     TEMPO 2021/2101 BKN020 
     FM210600 12005KT P6SM SCT020 SCT250 
     FM211700 14012KT P6SM SCT025 BKN080
       
TAF MMPR 201022Z 2012/2118 04005KT P6SM SCT100 TX28/2019Z TN21/2012Z 
     FM201800 23010KT P6SM SCT020 BKN100 BKN250 
     FM210600 34005KT P6SM SCT250 
     FM211700 23010KT P6SM SCT020 BKN100 BKN250
       
TAF AMD MMMD 201454Z 2015/2118 12020G30KT P6SM SCT020 TX33/2020Z TN22/2112Z 
     TEMPO 2018/2022 BKN020 
     FM210100 12015KT P6SM SKC 
     FM211300 12015KT P6SM BKN020
       
TAF AMD MMSP 201400Z 2014/2118 00000KT P6SM SCT030 BKN250 TX24/2021Z TN10/2112Z 
     FM202000 23015KT P6SM BKN030 
     PROB40 2022/2102 5SM VC RA BKN020CB 
     FM210300 00000KT P6SM SCT020 BKN250
       
TAF MMTP 201032Z 2012/2118 00000KT P6SM SCT140 
     FM201800 23010KT P6SM SCT100 SCT250 
     FM210600 00000KT P6SM SCT250 
     FM211700 23010KT P6SM SCT020 BKN100